Site:       
  Group:  
  From:      To:        
   
Sensor Name: Furnace      Latitude:-9.57320000 , Longitude:53.92290000
Please click on the Table Headers to view a Graph of the Observations.
TimeMax. Temp. (°C)Min. Temp. (°C)Mean Temp. (°C)Tot. Rain (mm)Mean Wind (kn)Max Gust (kn)Solar Rad. (J\cm2)Humidity (%)Atmos. Press. (mb)Temp. 5cm (°C)Temp. 10cm (°C)Temp. 20cm (°C)Temp. 30cm (°C)Temp. 50cm (°C)Temp. 100cm (°C)Grass Min. (°C)
20/06/2021 23:00:0012.10 11.70 11.90 0.00 16.20 27.00 0.00 83.40 1013.60 14.90 15.70 16.00 15.70 14.70 13.50 11.20
20/06/2021 22:00:0012.40 12.00 12.20 0.00 18.20 27.90 0.50 81.00 1012.80 15.40 16.10 16.20 15.80 14.70 13.50 11.60
20/06/2021 21:00:0012.50 12.40 12.50 0.00 17.70 28.60 7.80 79.10 1012.20 15.90 16.60 16.40 15.80 14.60 13.50 11.90
20/06/2021 20:00:0012.70 12.40 12.60 0.00 18.60 28.40 18.20 77.50 1011.60 16.50 17.00 16.50 15.80 14.60 13.40 12.40
20/06/2021 19:00:0013.00 12.60 12.80 0.00 18.30 30.00 41.20 76.00 1011.10 17.10 17.50 16.60 15.80 14.60 13.40 13.20
20/06/2021 18:00:0013.50 12.90 13.20 0.00 19.10 30.50 72.60 73.90 1010.40 17.70 17.90 16.60 15.70 14.50 13.40 14.20
20/06/2021 17:00:0014.30 13.40 13.90 0.00 17.70 28.30 107.00 73.90 1009.80 18.30 18.20 16.50 15.60 14.50 13.40 15.10
20/06/2021 16:00:0015.00 14.20 14.60 0.00 16.70 27.50 141.30 76.00 1009.50 18.60 18.30 16.30 15.50 14.50 13.40 17.10
20/06/2021 15:00:0016.40 14.70 15.60 0.00 15.60 25.10 131.90 76.10 1009.20 19.10 18.30 15.90 15.30 14.50 13.40 17.60
20/06/2021 14:00:0017.90 16.40 17.20 0.00 11.60 19.90 235.00 70.00 1009.00 18.70 17.80 15.60 15.10 14.50 13.40 23.20
20/06/2021 13:00:0017.90 17.00 17.40 0.00 9.80 16.60 198.20 65.50 1008.80 18.00 17.20 15.30 15.00 14.50 13.40 22.40
20/06/2021 12:00:0017.80 17.10 17.40 0.00 8.40 16.50 208.20 65.50 1008.70 17.20 16.40 15.00 14.90 14.50 13.40 24.30
20/06/2021 11:00:0017.20 15.20 16.20 0.00 8.30 16.30 204.50 69.60 1008.60 16.00 15.60 14.90 14.80 14.50 13.40 20.20
20/06/2021 10:00:0015.20 14.00 14.60 0.00 8.50 15.30 126.20 78.50 1008.50 15.20 15.10 14.80 14.80 14.50 13.40 17.50
20/06/2021 09:00:0014.00 13.60 13.80 0.00 5.60 11.70 78.00 79.10 1008.40 14.70 14.80 14.80 14.90 14.60 13.40 16.40
20/06/2021 08:00:0013.60 12.60 13.10 0.00 4.50 7.90 47.90 78.40 1008.00 14.40 14.70 14.90 14.90 14.60 13.40 13.80
20/06/2021 07:00:0012.60 12.10 12.30 0.00 4.10 7.60 25.80 82.60 1007.70 14.30 14.70 15.00 15.00 14.60 13.40 12.80
20/06/2021 06:00:0012.10 11.90 12.00 0.00 2.40 5.40 14.60 83.10 1007.30 14.30 14.70 15.10 15.10 14.60 13.40 11.40
20/06/2021 05:00:0012.30 11.80 12.00 0.00 2.60 5.40 2.10 78.10 1006.80 14.40 14.90 15.20 15.20 14.60 13.40 10.50
20/06/2021 04:00:0011.80 11.60 11.70 0.00 2.00 5.80 0.00 83.50 1006.50 14.60 15.00 15.40 15.30 14.60 13.40 10.60
20/06/2021 03:00:0012.30 11.80 12.10 0.00 3.80 6.40 0.00 83.80 1006.40 14.80 15.30 15.50 15.40 14.60 13.40 10.90
20/06/2021 02:00:0012.30 11.90 12.10 0.00 3.80 6.40 0.00 82.90 1006.50 15.00 15.50 15.70 15.50 14.50 13.40 11.00
20/06/2021 01:00:0012.50 12.10 12.30 0.00 4.40 7.30 0.00 82.40 1006.60 15.20 15.70 15.90 15.50 14.50 13.40 11.20
20/06/2021 00:00:0012.40 12.20 12.30 0.00 5.30 8.50 0.00 78.30 1006.50 15.50 16.10 16.10 15.60 14.50 13.40 10.30
19/06/2021 23:00:0012.80 12.00 12.40 0.00 5.70 11.10 0.00 79.00 1006.30 16.10 16.50 16.20 15.60 14.40 13.40 -999.00
19/06/2021 22:00:0014.40 12.80 13.60 0.00 4.90 8.70 0.30 76.20 1006.10 16.70 17.00 16.30 15.60 14.40 13.40 -999.00